createdAt,value
2017-08-29T00:00:26.018Z,26.31
2017-08-29T00:01:06.479Z,26.27
2017-08-29T00:01:46.934Z,26.31
2017-08-29T00:02:27.387Z,26.27
2017-08-29T00:03:07.844Z,26.31
2017-08-29T00:03:48.298Z,26.31
2017-08-29T00:04:28.759Z,26.31
2017-08-29T00:05:09.215Z,26.24
2017-08-29T00:05:49.668Z,26.3
2017-08-29T00:06:30.127Z,26.22
2017-08-29T00:07:10.576Z,26.22
2017-08-29T00:07:51.029Z,26.24
2017-08-29T00:08:31.489Z,26.36
2017-08-29T00:09:11.938Z,26.27
2017-08-29T00:09:52.400Z,26.29
2017-08-29T00:10:32.854Z,26.29
2017-08-29T00:11:13.308Z,26.23
2017-08-29T00:11:53.762Z,26.26
2017-08-29T00:12:34.222Z,26.23
2017-08-29T00:13:14.679Z,26.29
2017-08-29T00:13:55.138Z,26.24
2017-08-29T00:14:35.600Z,26.27
2017-08-29T00:15:16.054Z,26.29
2017-08-29T00:15:56.509Z,26.27
2017-08-29T00:16:36.969Z,26.23
2017-08-29T00:17:17.521Z,26.3
2017-08-29T00:17:57.982Z,26.3
2017-08-29T00:18:38.436Z,26.26
2017-08-29T00:19:19.008Z,26.24
2017-08-29T00:19:59.472Z,26.22
2017-08-29T00:20:39.921Z,26.23
2017-08-29T00:21:20.377Z,26.24
2017-08-29T00:22:00.883Z,26.23
2017-08-29T00:22:41.501Z,26.16
2017-08-29T00:23:21.956Z,26.22
2017-08-29T00:24:02.510Z,26.22
2017-08-29T00:24:42.978Z,26.16
2017-08-29T00:25:23.430Z,26.15
2017-08-29T00:26:03.888Z,26.23
2017-08-29T00:26:44.355Z,26.18
2017-08-29T00:27:24.811Z,26.11
2017-08-29T00:28:05.264Z,26.27
2017-08-29T00:28:45.718Z,26.11
2017-08-29T00:29:26.237Z,26.11
2017-08-29T00:30:06.701Z,26.15
2017-08-29T00:30:47.161Z,26.27
2017-08-29T00:31:27.625Z,26.16
2017-08-29T00:32:08.114Z,26.11
2017-08-29T00:32:48.580Z,26.13
2017-08-29T00:33:29.012Z,26.16
2017-08-29T00:34:09.472Z,26.11
2017-08-29T00:34:49.923Z,26.16
2017-08-29T00:35:30.389Z,26.13
2017-08-29T00:36:10.848Z,26.13
2017-08-29T00:36:51.304Z,26.13
2017-08-29T00:37:31.761Z,26.15
2017-08-29T00:38:12.211Z,26.18
2017-08-29T00:38:52.660Z,26.13
2017-08-29T00:39:33.121Z,26.11
2017-08-29T00:40:13.575Z,26.16
2017-08-29T00:40:54.054Z,26.22
2017-08-29T00:41:34.515Z,26.11
2017-08-29T00:42:14.975Z,26.16
2017-08-29T00:42:55.429Z,26.18
2017-08-29T00:43:35.894Z,26.15
2017-08-29T00:44:16.338Z,26.15
2017-08-29T00:44:56.794Z,26.11
2017-08-29T00:45:37.340Z,26.13
2017-08-29T00:46:17.799Z,26.18
2017-08-29T00:46:58.245Z,26.16
2017-08-29T00:47:38.684Z,26.15
2017-08-29T00:48:19.142Z,26.15
2017-08-29T00:48:59.603Z,26.13
2017-08-29T00:49:40.168Z,26.13
2017-08-29T00:50:20.618Z,26.13
2017-08-29T00:51:01.081Z,26.08
2017-08-29T00:51:41.534Z,26.01
2017-08-29T00:52:21.989Z,26.16
2017-08-29T00:53:02.459Z,26.15
2017-08-29T00:53:42.911Z,26.07
2017-08-29T00:54:23.365Z,26.19
2017-08-29T00:55:03.825Z,26.06
2017-08-29T00:55:44.281Z,26.13
2017-08-29T00:56:24.737Z,26.16
2017-08-29T00:57:05.184Z,26.06
2017-08-29T00:57:45.643Z,26.04
2017-08-29T00:58:26.092Z,26.13
2017-08-29T00:59:06.543Z,26.1
2017-08-29T00:59:47.011Z,26.01
2017-08-29T01:00:27.463Z,25.99
2017-08-29T01:01:07.925Z,26.06
2017-08-29T01:01:48.394Z,26.08
2017-08-29T01:02:28.844Z,26.03
2017-08-29T01:03:09.298Z,26.1
2017-08-29T01:03:49.755Z,26.15
2017-08-29T01:04:30.222Z,26.1
2017-08-29T01:05:10.664Z,26.15
2017-08-29T01:05:51.115Z,25.99
2017-08-29T01:06:31.575Z,26.07
2017-08-29T01:07:12.024Z,26.01
2017-08-29T01:07:52.483Z,25.99
2017-08-29T01:08:32.927Z,25.99
2017-08-29T01:10:30.638Z,25.98
2017-08-29T01:11:11.093Z,25.98
2017-08-29T01:11:51.545Z,25.99
2017-08-29T01:12:31.996Z,26.01
2017-08-29T01:13:12.448Z,25.99
2017-08-29T01:13:52.900Z,26.03
2017-08-29T01:14:33.357Z,26.01
2017-08-29T01:15:13.801Z,26.11
2017-08-29T01:15:54.260Z,26.13
2017-08-29T01:16:34.717Z,25.98
2017-08-29T01:17:15.173Z,25.99
2017-08-29T01:17:55.628Z,26.01
2017-08-29T01:18:36.088Z,26.1
2017-08-29T01:19:16.658Z,26.06
2017-08-29T01:19:57.100Z,25.99
2017-08-29T01:20:37.557Z,26.01
2017-08-29T01:21:18.030Z,26.01
2017-08-29T01:21:58.457Z,26.1
2017-08-29T01:22:38.906Z,26.01
2017-08-29T01:23:19.364Z,26.03
2017-08-29T01:23:59.821Z,26.04
2017-08-29T01:24:40.276Z,26.06
2017-08-29T01:25:20.723Z,26.07
2017-08-29T01:26:01.165Z,25.99
2017-08-29T01:26:41.623Z,25.96
2017-08-29T01:27:22.072Z,26.07
2017-08-29T01:28:02.517Z,26.07
2017-08-29T01:28:42.966Z,25.96
2017-08-29T01:29:23.423Z,26.15
2017-08-29T01:30:03.867Z,26.13
2017-08-29T01:30:44.319Z,25.99
2017-08-29T01:31:24.771Z,26.11
2017-08-29T01:32:05.222Z,26.08
2017-08-29T01:32:45.675Z,25.98
2017-08-29T01:33:26.125Z,26.01
2017-08-29T01:34:06.583Z,26.03
2017-08-29T01:34:47.044Z,26.1
2017-08-29T01:35:27.516Z,26.01
2017-08-29T01:36:07.973Z,26.08
2017-08-29T01:36:48.423Z,26.07
2017-08-29T01:37:28.885Z,25.99
2017-08-29T01:38:09.340Z,25.99
2017-08-29T01:38:49.816Z,26.08
2017-08-29T01:39:30.226Z,26.06
2017-08-29T01:40:10.686Z,26.04
2017-08-29T01:40:51.145Z,26.1
2017-08-29T01:41:31.600Z,26.07
2017-08-29T01:42:12.053Z,26.07
2017-08-29T01:42:52.503Z,26.1
2017-08-29T01:43:32.954Z,26.07
2017-08-29T01:44:13.403Z,26.04
2017-08-29T01:44:53.859Z,26.06
2017-08-29T01:45:34.316Z,25.95
2017-08-29T01:46:14.773Z,26.04
2017-08-29T01:46:55.228Z,26.03
2017-08-29T01:47:35.689Z,26.07
2017-08-29T01:48:16.159Z,25.98
2017-08-29T01:48:56.602Z,26.01
2017-08-29T01:49:37.053Z,25.96
2017-08-29T01:50:17.500Z,26.01
2017-08-29T01:50:57.949Z,26.1
2017-08-29T01:51:38.396Z,25.96
2017-08-29T01:52:18.851Z,26.04
2017-08-29T01:52:59.316Z,25.98
2017-08-29T01:53:39.766Z,26.06
2017-08-29T01:54:20.216Z,26.07
2017-08-29T01:55:00.677Z,26.04
2017-08-29T01:55:41.138Z,25.95
2017-08-29T01:56:21.585Z,26.01
2017-08-29T01:57:02.047Z,25.99
2017-08-29T01:57:42.489Z,25.98
2017-08-29T01:58:22.939Z,25.98
2017-08-29T01:59:03.493Z,26.01
2017-08-29T01:59:43.945Z,25.98
2017-08-29T02:00:24.403Z,25.99
2017-08-29T02:01:04.944Z,25.95
2017-08-29T02:01:45.361Z,26.01
2017-08-29T02:02:26.297Z,26.01
2017-08-29T02:03:07.708Z,26.03
2017-08-29T02:03:48.164Z,25.99
2017-08-29T02:04:28.619Z,25.95
2017-08-29T02:05:09.078Z,25.99
2017-08-29T02:05:49.533Z,25.95
2017-08-29T02:06:30.009Z,25.95
2017-08-29T02:07:10.459Z,25.99
2017-08-29T02:07:50.909Z,25.96
2017-08-29T02:08:31.358Z,25.98
2017-08-29T02:09:11.810Z,25.98
2017-08-29T02:09:52.267Z,25.95
2017-08-29T02:10:32.733Z,26.01
2017-08-29T02:11:13.187Z,25.96
2017-08-29T02:11:53.645Z,25.98
2017-08-29T02:12:34.091Z,25.96
2017-08-29T02:13:14.547Z,25.98
2017-08-29T02:13:55.008Z,25.93
2017-08-29T02:14:35.455Z,25.95
2017-08-29T02:15:16.782Z,25.96
2017-08-29T02:15:57.227Z,25.98
2017-08-29T02:16:37.675Z,25.95
2017-08-29T02:17:18.129Z,25.98
2017-08-29T02:17:58.583Z,25.99
2017-08-29T02:18:39.034Z,25.92
2017-08-29T02:19:19.483Z,25.96
2017-08-29T02:19:59.932Z,25.96
2017-08-29T02:20:40.385Z,25.89
2017-08-29T02:21:20.845Z,25.95
2017-08-29T02:22:01.295Z,25.95
2017-08-29T02:22:41.764Z,25.92
2017-08-29T02:23:22.215Z,25.99
2017-08-29T02:24:02.718Z,25.93
2017-08-29T02:24:43.178Z,25.93
2017-08-29T02:25:23.638Z,25.91
2017-08-29T02:26:04.085Z,25.96
2017-08-29T02:26:44.543Z,25.91
2017-08-29T02:27:25.021Z,25.95
2017-08-29T02:28:05.479Z,25.91
2017-08-29T02:28:45.931Z,25.98
2017-08-29T02:29:26.385Z,25.95
2017-08-29T02:30:06.837Z,25.93
2017-08-29T02:30:47.294Z,25.92
2017-08-29T02:31:27.772Z,25.98
2017-08-29T02:32:08.226Z,25.92
2017-08-29T02:32:48.679Z,25.91
2017-08-29T02:33:29.131Z,25.92
2017-08-29T02:34:09.591Z,25.91
2017-08-29T02:34:50.033Z,25.81
2017-08-29T02:35:30.485Z,25.92
2017-08-29T02:36:10.958Z,25.89
2017-08-29T02:36:51.388Z,25.96
2017-08-29T02:37:31.845Z,25.92
2017-08-29T02:38:12.302Z,25.89
2017-08-29T02:38:52.759Z,25.91
2017-08-29T02:39:33.213Z,25.92
2017-08-29T02:40:13.691Z,25.85
2017-08-29T02:40:54.133Z,25.83
2017-08-29T02:41:34.602Z,25.85
2017-08-29T02:42:15.051Z,25.92
2017-08-29T02:42:55.503Z,25.88
2017-08-29T02:43:36.013Z,25.81
2017-08-29T02:44:16.470Z,25.86
2017-08-29T02:44:56.930Z,25.86
2017-08-29T02:45:37.389Z,25.89
2017-08-29T02:46:17.846Z,25.81
2017-08-29T02:46:58.294Z,25.89
2017-08-29T02:47:38.751Z,25.85
2017-08-29T02:48:19.224Z,25.81
2017-08-29T02:48:59.688Z,25.92
2017-08-29T02:49:40.133Z,25.93
2017-08-29T02:50:20.581Z,25.8
2017-08-29T02:51:01.033Z,25.91
2017-08-29T02:51:41.485Z,25.88
2017-08-29T02:52:21.935Z,25.8
2017-08-29T02:53:02.389Z,25.89
2017-08-29T02:53:42.859Z,25.89
2017-08-29T02:54:23.311Z,25.89
2017-08-29T02:55:03.828Z,25.81
2017-08-29T02:56:41.274Z,25.81
2017-08-29T02:57:21.718Z,25.81
2017-08-29T02:58:02.158Z,25.81
2017-08-29T02:58:42.608Z,25.88
2017-08-29T02:59:23.063Z,25.86
2017-08-29T03:00:03.519Z,25.83
2017-08-29T03:00:43.975Z,25.78
2017-08-29T03:01:24.433Z,25.89
2017-08-29T03:02:04.886Z,25.81
2017-08-29T03:02:45.340Z,25.88
2017-08-29T03:03:25.836Z,25.85
2017-08-29T03:04:06.251Z,25.78
2017-08-29T03:04:46.704Z,25.81
2017-08-29T03:05:27.155Z,25.78
2017-08-29T03:06:07.612Z,25.81
2017-08-29T03:06:48.072Z,25.83
2017-08-29T03:07:28.527Z,25.74
2017-08-29T03:08:10.015Z,25.77
2017-08-29T03:08:50.461Z,25.81
2017-08-29T03:09:30.927Z,25.78
2017-08-29T03:10:11.382Z,25.81
2017-08-29T03:10:51.852Z,25.83
2017-08-29T03:11:32.280Z,25.8
2017-08-29T03:12:12.731Z,25.78
2017-08-29T03:12:53.177Z,25.83
2017-08-29T03:13:33.641Z,25.7
2017-08-29T03:14:14.083Z,25.77
2017-08-29T03:14:54.537Z,25.71
2017-08-29T03:15:34.991Z,25.78
2017-08-29T03:16:15.458Z,25.7
2017-08-29T03:16:55.904Z,25.78
2017-08-29T03:17:36.423Z,25.74
2017-08-29T03:18:16.872Z,25.76
2017-08-29T03:18:57.324Z,25.83
2017-08-29T03:19:37.806Z,25.73
2017-08-29T03:20:18.262Z,25.76
2017-08-29T03:20:58.718Z,25.78
2017-08-29T03:22:46.328Z,25.78
2017-08-29T03:23:26.881Z,25.74
2017-08-29T03:24:07.338Z,25.73
2017-08-29T03:24:47.788Z,25.74
2017-08-29T03:25:28.267Z,25.71
2017-08-29T03:26:08.729Z,25.73
2017-08-29T03:26:49.179Z,25.71
2017-08-29T03:27:29.750Z,25.73
2017-08-29T03:28:10.198Z,25.73
2017-08-29T03:28:50.652Z,25.73
2017-08-29T03:29:31.103Z,25.71
2017-08-29T03:30:11.567Z,25.7
2017-08-29T03:30:52.029Z,25.7
2017-08-29T03:31:32.460Z,25.73
2017-08-29T03:32:12.915Z,25.71
2017-08-29T03:32:53.377Z,25.71
2017-08-29T03:33:33.834Z,25.71
2017-08-29T03:34:14.281Z,25.78
2017-08-29T03:34:54.738Z,25.68
2017-08-29T03:35:35.197Z,25.7
2017-08-29T03:36:15.660Z,25.66
2017-08-29T03:36:56.112Z,25.66
2017-08-29T03:37:36.568Z,25.67
2017-08-29T03:38:17.017Z,25.68
2017-08-29T03:38:57.471Z,25.67
2017-08-29T03:39:37.930Z,25.7
2017-08-29T03:40:18.391Z,25.7
2017-08-29T03:40:58.847Z,25.7
2017-08-29T03:41:39.309Z,25.68
2017-08-29T03:42:19.760Z,25.71
2017-08-29T03:43:00.223Z,25.59
2017-08-29T03:43:40.670Z,25.71
2017-08-29T03:44:21.121Z,25.68
2017-08-29T03:45:01.582Z,25.61
2017-08-29T03:45:42.052Z,25.59
2017-08-29T03:46:22.507Z,25.67
2017-08-29T03:47:02.958Z,25.59
2017-08-29T03:47:43.416Z,25.67
2017-08-29T03:48:23.864Z,25.71
2017-08-29T03:49:04.308Z,25.59
2017-08-29T03:49:44.763Z,25.59
2017-08-29T03:50:25.215Z,25.66
2017-08-29T03:51:05.672Z,25.59
2017-08-29T03:51:46.131Z,25.7
2017-08-29T03:52:26.642Z,25.66
2017-08-29T03:53:07.096Z,25.67
2017-08-29T03:53:47.545Z,25.59
2017-08-29T03:54:27.987Z,25.56
2017-08-29T03:55:08.450Z,25.66
2017-08-29T03:55:48.916Z,25.68
2017-08-29T03:56:29.360Z,25.62
2017-08-29T03:57:09.815Z,25.62
2017-08-29T03:57:50.271Z,25.63
2017-08-29T03:58:30.721Z,25.59
2017-08-29T03:59:11.180Z,25.61
2017-08-29T03:59:51.635Z,25.66
2017-08-29T04:00:32.074Z,25.66
2017-08-29T04:01:12.529Z,25.62
2017-08-29T04:01:52.984Z,25.66
2017-08-29T04:02:33.438Z,25.62
2017-08-29T04:03:13.892Z,25.62
2017-08-29T04:03:54.351Z,25.63
2017-08-29T04:04:34.807Z,25.58
2017-08-29T04:05:15.261Z,25.66
2017-08-29T04:05:55.724Z,25.63
2017-08-29T04:06:36.176Z,25.66
2017-08-29T04:07:16.636Z,25.56
2017-08-29T04:07:57.068Z,25.62
2017-08-29T04:08:37.528Z,25.56
2017-08-29T04:09:17.977Z,25.59
2017-08-29T04:09:58.431Z,25.56
2017-08-29T04:10:38.888Z,25.56
2017-08-29T04:11:19.342Z,25.56
2017-08-29T04:11:59.799Z,25.62
2017-08-29T04:12:40.253Z,25.56
2017-08-29T04:13:20.710Z,25.59
2017-08-29T04:15:18.416Z,25.61
2017-08-29T04:15:58.869Z,25.56
2017-08-29T04:16:39.312Z,25.56
2017-08-29T04:17:19.776Z,25.56
2017-08-29T04:18:00.227Z,25.59
2017-08-29T04:18:40.677Z,25.49
2017-08-29T04:19:21.221Z,25.59
2017-08-29T04:20:01.679Z,25.52
2017-08-29T04:20:42.134Z,25.55
2017-08-29T04:21:22.595Z,25.48
2017-08-29T04:22:03.048Z,25.58
2017-08-29T04:22:43.501Z,25.49
2017-08-29T04:23:23.956Z,25.49
2017-08-29T04:24:04.420Z,25.52
2017-08-29T04:24:44.885Z,25.56
2017-08-29T04:25:25.328Z,25.39
2017-08-29T04:26:05.776Z,25.46
2017-08-29T04:26:46.228Z,25.52
2017-08-29T04:27:26.679Z,25.46
2017-08-29T04:28:07.150Z,25.48
2017-08-29T04:28:47.611Z,25.54
2017-08-29T04:29:28.066Z,25.44
2017-08-29T04:30:08.520Z,25.46
2017-08-29T04:30:48.981Z,25.49
2017-08-29T04:31:29.435Z,25.52
2017-08-29T04:32:09.908Z,25.44
2017-08-29T04:32:50.350Z,25.54
2017-08-29T04:33:30.798Z,25.49
2017-08-29T04:34:11.250Z,25.52
2017-08-29T04:34:51.697Z,25.49
2017-08-29T04:35:32.145Z,25.46
2017-08-29T04:36:12.603Z,25.48
2017-08-29T04:36:53.051Z,25.48
2017-08-29T04:37:33.518Z,25.51
2017-08-29T04:38:13.976Z,25.49
2017-08-29T04:38:54.431Z,25.43
2017-08-29T04:39:34.885Z,25.51
2017-08-29T04:40:15.343Z,25.4
2017-08-29T04:40:55.793Z,25.49
2017-08-29T04:41:36.245Z,25.46
2017-08-29T04:42:16.776Z,25.51
2017-08-29T04:42:57.234Z,25.37
2017-08-29T04:43:37.697Z,25.52
2017-08-29T04:44:18.163Z,25.52
2017-08-29T04:44:58.657Z,25.49
2017-08-29T04:45:39.087Z,25.54
2017-08-29T04:46:19.532Z,25.39
2017-08-29T04:46:59.990Z,25.52
2017-08-29T04:47:40.446Z,25.51
2017-08-29T04:48:20.899Z,25.52
2017-08-29T04:49:01.342Z,25.54
2017-08-29T04:49:41.793Z,25.4
2017-08-29T04:50:22.257Z,25.51
2017-08-29T04:51:02.713Z,25.52
2017-08-29T04:51:43.168Z,25.51
2017-08-29T04:52:23.626Z,25.51
2017-08-29T04:54:36.394Z,25.44
2017-08-29T04:55:16.844Z,25.44
2017-08-29T04:55:57.286Z,25.51
2017-08-29T04:56:37.739Z,25.51
2017-08-29T04:57:18.177Z,25.44
2017-08-29T04:57:58.633Z,25.49
2017-08-29T04:58:39.089Z,25.54
2017-08-29T04:59:19.548Z,25.48
2017-08-29T04:59:59.997Z,25.51
2017-08-29T05:00:40.454Z,25.49
2017-08-29T05:01:20.910Z,25.46
2017-08-29T05:02:01.532Z,25.46
2017-08-29T05:02:41.972Z,25.46
2017-08-29T05:03:22.419Z,25.48
2017-08-29T05:04:02.867Z,25.48
2017-08-29T05:04:43.316Z,25.48
2017-08-29T05:05:23.764Z,25.48
2017-08-29T05:06:04.221Z,25.4
2017-08-29T05:06:44.685Z,25.49
2017-08-29T05:07:25.137Z,25.48
2017-08-29T05:08:05.589Z,25.49
2017-08-29T05:08:46.041Z,25.46
2017-08-29T05:09:26.508Z,25.46
2017-08-29T05:10:06.962Z,25.54
2017-08-29T05:10:47.414Z,25.49
2017-08-29T05:11:27.870Z,25.48
2017-08-29T05:12:08.343Z,25.51
2017-08-29T05:12:48.800Z,25.49
2017-08-29T05:13:29.255Z,25.51
2017-08-29T05:14:09.717Z,25.51
2017-08-29T05:14:50.167Z,25.52
2017-08-29T05:15:30.620Z,25.46
2017-08-29T05:16:11.066Z,25.52
2017-08-29T05:16:51.531Z,25.51
2017-08-29T05:17:31.983Z,25.51
2017-08-29T05:18:12.438Z,25.52
2017-08-29T05:18:52.896Z,25.52
2017-08-29T05:19:33.343Z,25.54
2017-08-29T05:20:13.806Z,25.39
2017-08-29T05:20:54.267Z,25.46
2017-08-29T05:21:34.725Z,25.52
2017-08-29T05:22:15.171Z,25.46
2017-08-29T05:22:55.619Z,25.46
2017-08-29T05:23:36.067Z,25.52
2017-08-29T05:24:16.517Z,25.46
2017-08-29T05:24:56.971Z,25.52
2017-08-29T05:25:37.458Z,25.46
2017-08-29T05:26:17.905Z,25.49
2017-08-29T05:26:58.359Z,25.51
2017-08-29T05:27:38.818Z,25.48
2017-08-29T05:28:19.275Z,25.54
2017-08-29T05:28:59.732Z,25.48
2017-08-29T05:29:40.193Z,25.46
2017-08-29T05:30:20.648Z,25.43
2017-08-29T05:31:01.285Z,25.46
2017-08-29T05:31:41.707Z,25.51
2017-08-29T05:32:22.167Z,25.44
2017-08-29T05:33:02.614Z,25.44
2017-08-29T05:33:43.069Z,25.54
2017-08-29T05:34:23.539Z,25.43
2017-08-29T05:35:03.992Z,25.54
2017-08-29T05:35:44.453Z,25.54
2017-08-29T05:36:24.911Z,25.46
2017-08-29T05:37:05.373Z,25.54
2017-08-29T05:37:45.826Z,25.54
2017-08-29T05:38:26.277Z,25.55
2017-08-29T05:39:06.737Z,25.61
2017-08-29T05:39:47.196Z,25.63
2017-08-29T05:40:27.652Z,25.59
2017-08-29T05:41:08.109Z,25.58
2017-08-29T05:41:48.565Z,25.54
2017-08-29T05:42:29.014Z,25.55
2017-08-29T05:43:09.470Z,25.59
2017-08-29T05:43:49.924Z,25.59
2017-08-29T05:44:30.380Z,25.54
2017-08-29T05:45:10.842Z,25.59
2017-08-29T05:45:51.302Z,25.61
2017-08-29T05:46:31.750Z,25.62
2017-08-29T05:47:12.211Z,25.58
2017-08-29T05:47:52.669Z,25.67
2017-08-29T05:48:33.137Z,25.7
2017-08-29T05:49:13.615Z,25.63
2017-08-29T05:49:54.068Z,25.7
2017-08-29T05:50:34.531Z,25.62
2017-08-29T05:51:14.990Z,25.62
2017-08-29T05:51:55.441Z,25.67
2017-08-29T05:52:35.894Z,25.71
2017-08-29T05:53:16.352Z,25.71
2017-08-29T05:53:56.800Z,25.61
2017-08-29T05:54:37.266Z,25.7
2017-08-29T05:55:17.722Z,25.74
2017-08-29T05:55:58.177Z,25.7
2017-08-29T05:56:38.633Z,25.73
2017-08-29T05:57:19.081Z,25.73
2017-08-29T05:57:59.554Z,25.8
2017-08-29T05:58:39.984Z,25.85
2017-08-29T05:59:20.446Z,25.77
2017-08-29T06:00:00.898Z,25.76
2017-08-29T06:00:41.351Z,25.81
2017-08-29T06:01:21.801Z,25.81
2017-08-29T06:02:02.266Z,25.78
2017-08-29T06:02:42.704Z,25.77
2017-08-29T06:03:23.159Z,25.8
2017-08-29T06:04:03.615Z,25.85
2017-08-29T06:04:44.072Z,25.83
2017-08-29T06:05:24.530Z,25.89
2017-08-29T06:06:04.980Z,25.91
2017-08-29T06:06:45.431Z,25.86
2017-08-29T06:07:25.888Z,25.86
2017-08-29T06:08:06.344Z,25.85
2017-08-29T06:08:46.795Z,25.86
2017-08-29T06:09:27.281Z,25.91
2017-08-29T06:10:07.735Z,25.88
2017-08-29T06:10:48.182Z,25.89
2017-08-29T06:11:28.634Z,25.88
2017-08-29T06:12:09.085Z,25.92
2017-08-29T06:12:49.541Z,25.95
2017-08-29T06:13:30.020Z,25.91
2017-08-29T06:14:10.449Z,25.86
2017-08-29T06:14:50.907Z,25.95
2017-08-29T06:15:31.423Z,25.92
2017-08-29T06:16:11.827Z,25.91
2017-08-29T06:16:52.282Z,25.96
2017-08-29T06:17:32.732Z,25.96
2017-08-29T06:18:13.188Z,25.96
2017-08-29T06:18:53.644Z,26.01
2017-08-29T06:19:34.105Z,25.95
2017-08-29T06:20:14.543Z,26.01
2017-08-29T06:20:54.994Z,25.99
2017-08-29T06:21:35.447Z,25.88
2017-08-29T06:22:15.902Z,26.01
2017-08-29T06:22:56.356Z,25.98
2017-08-29T06:23:36.816Z,25.99
2017-08-29T06:24:17.271Z,25.96
2017-08-29T06:24:57.727Z,26.08
2017-08-29T06:25:38.182Z,26.01
2017-08-29T06:26:18.635Z,25.98
2017-08-29T06:26:59.088Z,26.01
2017-08-29T06:27:39.697Z,26.07
2017-08-29T06:28:20.149Z,26.01
2017-08-29T06:29:00.595Z,25.99
2017-08-29T06:29:41.059Z,26.1
2017-08-29T06:30:21.511Z,26.08
2017-08-29T06:31:01.958Z,25.98
2017-08-29T06:31:42.403Z,26.04
2017-08-29T06:32:22.853Z,26.01
2017-08-29T06:33:03.316Z,26.11
2017-08-29T06:33:43.777Z,25.99
2017-08-29T06:34:24.264Z,25.99
2017-08-29T06:35:04.719Z,26.16
2017-08-29T06:35:45.173Z,26.01
2017-08-29T06:36:25.634Z,26.01
2017-08-29T06:37:06.083Z,26.07
2017-08-29T06:37:46.541Z,26.06
2017-08-29T06:38:26.996Z,26.15
2017-08-29T06:39:07.493Z,26.15
2017-08-29T06:39:47.951Z,26.13
2017-08-29T06:40:28.412Z,26.13
2017-08-29T06:41:08.873Z,26.16
2017-08-29T06:41:49.331Z,26.11
2017-08-29T06:42:29.786Z,26.15
2017-08-29T06:44:22.399Z,26.26
2017-08-29T06:45:02.854Z,26.3
2017-08-29T06:45:43.307Z,26.3
2017-08-29T06:46:23.818Z,26.29
2017-08-29T06:47:04.273Z,26.3
2017-08-29T06:47:44.722Z,26.3
2017-08-29T06:48:25.170Z,26.31
2017-08-29T06:49:05.633Z,26.3
2017-08-29T06:49:46.079Z,26.33
2017-08-29T06:50:26.534Z,26.31
2017-08-29T06:51:06.980Z,26.31
2017-08-29T06:51:47.436Z,26.36
2017-08-29T06:52:27.890Z,26.33
2017-08-29T06:53:08.343Z,26.33
2017-08-29T06:53:48.800Z,26.37
2017-08-29T06:54:29.251Z,26.37
2017-08-29T06:55:09.699Z,26.37
2017-08-29T06:55:50.168Z,26.41
2017-08-29T06:56:30.615Z,26.49
2017-08-29T06:57:11.061Z,26.42
2017-08-29T06:57:51.515Z,26.46
2017-08-29T06:58:31.969Z,26.51
2017-08-29T06:59:12.417Z,26.56
2017-08-29T06:59:52.869Z,26.49
2017-08-29T07:00:33.314Z,26.52
2017-08-29T07:01:13.773Z,26.53
2017-08-29T07:01:54.227Z,26.55
2017-08-29T07:02:34.682Z,26.61
2017-08-29T07:03:15.134Z,26.63
2017-08-29T07:03:55.591Z,26.59
2017-08-29T07:04:36.051Z,26.64
2017-08-29T07:05:16.500Z,26.64
2017-08-29T07:05:56.992Z,26.59
2017-08-29T07:06:37.524Z,26.55
2017-08-29T07:07:17.981Z,26.66
2017-08-29T07:07:58.432Z,26.6
2017-08-29T07:08:38.956Z,26.63
2017-08-29T07:09:19.405Z,26.71
2017-08-29T07:09:59.866Z,26.64
2017-08-29T07:10:40.325Z,26.6
2017-08-29T07:11:20.781Z,26.63
2017-08-29T07:12:01.231Z,26.73
2017-08-29T07:12:41.682Z,26.78
2017-08-29T07:13:22.288Z,26.76
2017-08-29T07:14:02.728Z,26.71
2017-08-29T07:14:43.185Z,26.82
2017-08-29T07:15:23.624Z,26.81
2017-08-29T07:16:04.083Z,26.82
2017-08-29T07:16:44.534Z,26.85
2017-08-29T07:17:24.979Z,26.79
2017-08-29T07:18:05.426Z,26.78
2017-08-29T07:18:45.876Z,26.76
2017-08-29T07:19:26.404Z,26.85
2017-08-29T07:20:06.856Z,26.79
2017-08-29T07:20:47.313Z,26.81
2017-08-29T07:21:27.770Z,26.81
2017-08-29T07:22:08.223Z,26.86
2017-08-29T07:22:48.679Z,26.85
2017-08-29T07:23:29.132Z,26.88
2017-08-29T07:24:09.593Z,26.91
2017-08-29T07:24:50.035Z,26.79
2017-08-29T07:25:30.491Z,26.91
2017-08-29T07:26:10.938Z,26.83
2017-08-29T07:26:51.394Z,27
2017-08-29T07:27:31.850Z,27
2017-08-29T07:28:12.301Z,26.98
2017-08-29T07:28:52.754Z,27
2017-08-29T07:29:33.181Z,27.01
2017-08-29T07:30:13.636Z,27.04
2017-08-29T07:30:54.080Z,27.03
2017-08-29T07:31:34.547Z,27.03
2017-08-29T07:32:15.000Z,27
2017-08-29T07:32:55.458Z,27.04
2017-08-29T07:33:35.909Z,27.13
2017-08-29T07:34:16.359Z,27.04
2017-08-29T07:34:56.821Z,27.08
2017-08-29T07:35:37.284Z,27.19
2017-08-29T07:36:17.745Z,27.11
2017-08-29T07:36:58.194Z,27.11
2017-08-29T07:37:38.647Z,27.16
2017-08-29T07:38:19.106Z,27.23
2017-08-29T07:38:59.564Z,27.15
2017-08-29T07:39:40.027Z,27.11
2017-08-29T07:40:20.478Z,27.2
2017-08-29T07:41:01.029Z,27.19
2017-08-29T07:41:41.494Z,27.23
2017-08-29T07:42:21.942Z,27.23
2017-08-29T07:43:02.399Z,27.22
2017-08-29T07:43:42.855Z,27.23
2017-08-29T07:44:23.304Z,27.38
2017-08-29T07:45:03.761Z,27.33
2017-08-29T07:45:44.218Z,27.33
2017-08-29T07:46:24.679Z,27.29
2017-08-29T07:47:05.124Z,27.34
2017-08-29T07:47:45.572Z,27.38
2017-08-29T07:48:26.025Z,27.38
2017-08-29T07:49:06.481Z,27.41
2017-08-29T07:49:46.938Z,27.44
2017-08-29T07:50:27.398Z,27.47
2017-08-29T07:51:07.861Z,27.44
2017-08-29T07:51:48.317Z,27.44
2017-08-29T07:52:28.778Z,27.53
2017-08-29T07:53:09.215Z,27.52
2017-08-29T07:53:49.672Z,27.53
2017-08-29T07:54:30.130Z,27.53
2017-08-29T07:55:10.583Z,27.58
2017-08-29T07:55:51.039Z,27.66
2017-08-29T07:56:31.488Z,27.71
2017-08-29T07:57:11.948Z,27.73
2017-08-29T07:57:52.403Z,27.72
2017-08-29T07:58:32.852Z,27.71
2017-08-29T07:59:13.302Z,27.71
2017-08-29T07:59:53.755Z,27.78
2017-08-29T08:00:34.209Z,27.73
2017-08-29T08:01:14.662Z,27.78
2017-08-29T08:01:55.117Z,27.83
2017-08-29T08:02:35.569Z,27.78
2017-08-29T08:03:16.018Z,27.81
2017-08-29T08:03:56.473Z,27.83
2017-08-29T08:04:36.920Z,27.83
2017-08-29T08:05:17.410Z,27.83
2017-08-29T08:05:57.858Z,27.82
2017-08-29T08:06:38.314Z,27.95
2017-08-29T08:07:18.769Z,27.97
2017-08-29T08:07:59.233Z,27.95
2017-08-29T08:08:39.738Z,27.93
2017-08-29T08:09:20.195Z,28.03
2017-08-29T08:10:00.651Z,27.88
2017-08-29T08:10:41.112Z,28.08
2017-08-29T08:11:21.566Z,28.01
2017-08-29T08:12:02.131Z,27.98
2017-08-29T08:13:39.564Z,27.95
2017-08-29T08:14:20.019Z,28.03
2017-08-29T08:15:00.480Z,28
2017-08-29T08:15:40.932Z,28.13
2017-08-29T08:16:21.388Z,28.13
2017-08-29T08:17:01.852Z,28.12
2017-08-29T08:17:42.299Z,28.08
2017-08-29T08:18:22.749Z,28.19
2017-08-29T08:19:03.198Z,28.06
2017-08-29T08:19:43.657Z,28.12
2017-08-29T08:20:24.105Z,28.18
2017-08-29T08:21:04.554Z,28.15
2017-08-29T08:21:45.021Z,28.15
2017-08-29T08:22:25.514Z,28.19
2017-08-29T08:23:05.976Z,28.13
2017-08-29T08:23:46.433Z,28.23
2017-08-29T08:24:26.915Z,28.22
2017-08-29T08:25:07.370Z,28.23
2017-08-29T08:25:47.827Z,28.3
2017-08-29T08:26:28.274Z,28.28
2017-08-29T08:27:08.742Z,28.37
2017-08-29T08:27:49.191Z,28.28
2017-08-29T08:28:29.639Z,28.34
2017-08-29T08:29:10.093Z,28.28
2017-08-29T08:29:50.559Z,28.4
2017-08-29T08:30:31.012Z,28.38
2017-08-29T08:31:11.470Z,28.35
2017-08-29T08:31:51.925Z,28.46
2017-08-29T08:32:32.392Z,28.47
2017-08-29T08:33:12.831Z,28.43
2017-08-29T08:33:53.279Z,28.5
2017-08-29T08:34:33.745Z,28.5
2017-08-29T08:35:14.202Z,28.47
2017-08-29T08:35:54.658Z,28.5
2017-08-29T08:36:35.113Z,28.52
2017-08-29T08:37:15.572Z,28.52
2017-08-29T08:37:56.028Z,28.55
2017-08-29T08:38:36.482Z,28.55
2017-08-29T08:39:16.927Z,28.57
2017-08-29T08:39:57.396Z,28.53
2017-08-29T08:40:37.847Z,28.56
2017-08-29T08:41:18.311Z,28.56
2017-08-29T08:41:58.766Z,28.57
2017-08-29T08:43:46.350Z,28.6
2017-08-29T08:44:26.886Z,28.6
2017-08-29T08:45:07.345Z,28.67
2017-08-29T08:45:47.795Z,28.71
2017-08-29T08:46:28.243Z,28.72
2017-08-29T08:47:08.727Z,28.71
2017-08-29T08:47:49.173Z,28.71
2017-08-29T08:48:29.622Z,28.72
2017-08-29T08:49:10.072Z,28.65
2017-08-29T08:49:50.532Z,28.84
2017-08-29T08:50:30.991Z,28.77
2017-08-29T08:51:11.439Z,28.75
2017-08-29T08:51:51.893Z,28.78